Time;durP1;ratioP1;P1;durP2;ratioP2;P2;SDS_P1;SDS_P2;PMS_P1;PMS_P2;Temp;Humidity;BMP_temperature;BMP_pressure;BME280_temperature;BME280_humidity;BME280_pressure;Samples;Min_cycle;Max_cycle;Signal;HPM_P1;HPM_P2
2021/08/18 00:01:01;;;;;;;10.90;6.40;;;;;;;22.65;100.00;98664.81;1760966;81;20931;-69
2021/08/18 00:03:31;;;;;;;7.05;6.08;;;;;;;22.64;100.00;98667.98;1757001;81;21162;-69
2021/08/18 00:06:01;;;;;;;9.57;5.87;;;;;;;22.64;100.00;98667.98;1766766;81;21462;-69
2021/08/18 00:08:29;;;;;;;9.38;6.25;;;;;;;22.63;100.00;98671.16;1767810;81;21635;-69
2021/08/18 00:10:59;;;;;;;8.60;5.92;;;;;;;22.61;100.00;98660.11;1756959;81;21418;-69
2021/08/18 00:13:29;;;;;;;8.45;6.10;;;;;;;22.60;100.00;98661.94;1759899;81;21410;-69
2021/08/18 00:15:56;;;;;;;9.73;6.33;;;;;;;22.60;100.00;98671.83;1767642;81;21155;-68
2021/08/18 00:18:26;;;;;;;8.10;6.03;;;;;;;22.58;100.00;98669.72;1767251;81;21536;-68
2021/08/18 00:20:56;;;;;;;8.65;6.33;;;;;;;22.58;100.00;98664.34;1765183;81;21537;-68
2021/08/18 00:23:26;;;;;;;9.48;5.78;;;;;;;22.59;100.00;98658.00;1760004;80;21487;-68
2021/08/18 00:25:55;;;;;;;9.55;6.37;;;;;;;22.59;100.00;98662.03;1767943;80;21476;-69
2021/08/18 00:28:23;;;;;;;7.87;6.35;;;;;;;22.58;100.00;98669.23;1749201;80;21524;-68
2021/08/18 00:30:51;;;;;;;10.88;6.87;;;;;;;22.56;100.00;98669.81;1750698;81;20974;-69
2021/08/18 00:33:19;;;;;;;8.70;6.45;;;;;;;22.54;100.00;98662.33;1770635;80;20943;-68
2021/08/18 00:35:48;;;;;;;10.70;6.70;;;;;;;22.51;100.00;98653.11;1759207;81;20946;-69
2021/08/18 00:38:19;;;;;;;8.05;6.70;;;;;;;22.50;100.00;98657.23;1751234;81;20999;-69
2021/08/18 00:40:49;;;;;;;10.80;6.70;;;;;;;22.49;100.00;98678.35;1773376;80;20955;-68
2021/08/18 00:43:17;;;;;;;8.68;6.47;;;;;;;22.51;100.00;98683.16;1761563;81;21441;-68
2021/08/18 00:45:46;;;;;;;8.33;5.87;;;;;;;22.52;100.00;98679.50;1786632;80;21027;-69
2021/08/18 00:48:15;;;;;;;8.43;5.90;;;;;;;22.50;100.00;98674.70;1733280;81;20943;-69
2021/08/18 00:50:45;;;;;;;7.50;5.22;;;;;;;22.47;100.00;98675.77;1749593;81;21560;-68
2021/08/18 00:53:14;;;;;;;6.15;4.90;;;;;;;22.45;100.00;98676.81;1756457;81;21151;-69
2021/08/18 00:55:42;;;;;;;5.80;4.30;;;;;;;22.43;100.00;98663.47;1763364;81;21635;-68
2021/08/18 00:58:10;;;;;;;7.87;4.50;;;;;;;22.41;100.00;98655.98;1756895;81;20972;-68
2021/08/18 01:00:39;;;;;;;7.67;4.60;;;;;;;22.43;100.00;98650.52;1758179;80;20999;-69
2021/08/18 01:03:07;;;;;;;5.33;4.67;;;;;;;22.43;100.00;98643.80;1792627;80;20986;-69
2021/08/18 01:05:36;;;;;;;4.50;4.10;;;;;;;22.41;100.00;98640.34;1754243;81;21149;-68
2021/08/18 01:08:04;;;;;;;5.35;4.47;;;;;;;22.38;100.00;98640.53;1754844;80;21012;-67
2021/08/18 01:10:35;;;;;;;7.95;4.58;;;;;;;;;;1744577;81;21472;-69
2021/08/18 01:13:05;;;;;;;6.22;4.42;;;;;;;22.33;100.00;98632.76;1756170;81;21534;-68
2021/08/18 01:15:33;;;;;;;5.28;4.12;;;;;;;22.32;100.00;98635.54;1763833;81;21615;-69
2021/08/18 01:18:05;;;;;;;4.80;4.30;;;;;;;22.33;100.00;98631.41;1763891;81;21536;-70
2021/08/18 01:20:38;;;;;;;6.93;4.03;;;;;;;22.32;100.00;98637.75;1756414;81;21515;-70
2021/08/18 01:23:10;;;;;;;6.92;4.75;;;;;;;22.30;100.00;98637.84;1757926;81;21474;-70
2021/08/18 01:25:40;;;;;;;5.47;4.15;;;;;;;22.29;100.00;98646.00;1751292;80;20862;-70
2021/08/18 01:28:09;;;;;;;4.45;4.05;;;;;;;22.28;100.00;98640.24;1758110;80;20951;-70
2021/08/18 01:30:37;;;;;;;5.58;4.12;;;;;;;22.26;100.00;98638.99;1759812;80;21135;-69
2021/08/18 01:33:12;;;;;;;5.45;4.20;;;;;;;22.26;100.00;98638.13;1768472;80;20980;-68
2021/08/18 01:35:48;;;;;;;5.92;4.40;;;;;;;22.25;100.00;98629.69;1768215;80;20931;-70
2021/08/18 01:38:18;;;;;;;6.90;4.75;;;;;;;22.25;100.00;98641.77;1762184;80;21101;-69
2021/08/18 01:40:51;;;;;;;5.25;4.67;;;;;;;22.23;100.00;98648.58;1780542;79;21097;-69
2021/08/18 01:43:21;;;;;;;5.35;4.40;;;;;;;22.21;100.00;98654.50;1770251;80;21181;-69
2021/08/18 01:45:49;;;;;;;5.00;4.12;;;;;;;22.20;100.00;98663.52;1756180;80;20981;-69
2021/08/18 01:48:20;;;;;;;4.92;3.92;;;;;;;22.19;100.00;98671.67;1745831;80;21133;-69
2021/08/18 01:50:51;;;;;;;6.78;5.03;;;;;;;22.20;100.00;98672.92;1705834;82;21603;-69
2021/08/18 01:53:37;;;;;;;5.12;4.42;;;;;;;22.21;100.00;98677.81;1711987;83;21047;-69
2021/08/18 01:56:05;;;;;;;6.97;4.65;;;;;;;22.21;100.00;98673.78;1736703;81;21130;-68
2021/08/18 01:58:34;;;;;;;5.15;4.15;;;;;;;22.19;100.00;98670.33;1738387;81;21519;-69
2021/08/18 02:01:04;;;;;;;9.93;5.15;;;;;;;22.20;100.00;98677.42;1736928;81;21492;-69
2021/08/18 02:03:32;;;;;;;6.97;4.50;;;;;;;22.18;100.00;98676.17;1736504;81;21622;-69
2021/08/18 02:06:00;;;;;;;6.58;4.28;;;;;;;22.21;100.00;98685.88;1736407;81;21472;-68
2021/08/18 02:08:29;;;;;;;6.10;4.30;;;;;;;22.23;100.00;98693.36;1735688;81;21468;-70
2021/08/18 02:10:57;;;;;;;6.70;4.30;;;;;;;22.24;100.00;98692.44;1738610;81;21008;-69
2021/08/18 02:13:27;;;;;;;6.75;4.65;;;;;;;22.22;100.00;98692.50;1736673;81;21416;-69
2021/08/18 02:15:54;;;;;;;4.95;4.10;;;;;;;22.22;100.00;98710.44;1736784;81;20965;-69
2021/08/18 02:18:23;;;;;;;5.60;4.20;;;;;;;22.21;100.00;98706.02;1736505;81;21092;-69
2021/08/18 02:20:50;;;;;;;7.28;4.12;;;;;;;22.20;100.00;98706.98;1738636;81;21138;-69
2021/08/18 02:23:18;;;;;;;5.00;4.08;;;;;;;22.21;100.00;98711.39;1732154;82;20917;-69
2021/08/18 02:25:47;;;;;;;6.17;4.60;;;;;;;22.21;100.00;98716.77;1756592;80;21017;-70
2021/08/18 02:28:16;;;;;;;5.60;4.50;;;;;;;22.20;100.00;98730.68;1741349;80;21540;-70
2021/08/18 02:30:46;;;;;;;9.80;4.60;;;;;;;22.18;100.00;98731.25;1749746;80;20945;-70
2021/08/18 02:33:17;;;;;;;6.97;4.50;;;;;;;22.16;100.00;98739.02;1752584;80;20933;-70
2021/08/18 02:35:46;;;;;;;4.90;4.30;;;;;;;22.13;100.00;98730.66;1780160;79;21484;-70
2021/08/18 02:38:15;;;;;;;4.97;4.22;;;;;;;22.15;100.00;98735.94;1792235;79;20975;-70
2021/08/18 02:40:45;;;;;;;8.68;5.40;;;;;;;22.14;100.00;98723.47;1784839;80;21552;-70
2021/08/18 02:43:14;;;;;;;8.98;5.10;;;;;;;22.14;100.00;98723.47;1754502;81;21513;-70
2021/08/18 02:45:44;;;;;;;6.17;5.33;;;;;;;22.12;100.00;98723.56;1754089;81;21624;-70
2021/08/18 02:48:12;;;;;;;6.12;4.83;;;;;;;22.11;100.00;98727.20;1758882;81;21011;-69
2021/08/18 02:50:40;;;;;;;4.85;4.35;;;;;;;22.11;100.00;98733.05;1760031;81;20967;-70
2021/08/18 02:53:08;;;;;;;8.55;4.70;;;;;;;22.11;100.00;98731.71;1797425;78;21449;-70
2021/08/18 02:55:38;;;;;;;6.83;4.87;;;;;;;22.12;100.00;98729.41;1780539;80;21459;-70
2021/08/18 02:58:06;;;;;;;6.00;4.70;;;;;;;22.09;100.00;98733.14;1746032;80;21152;-70
2021/08/18 03:00:35;;;;;;;7.65;4.33;;;;;;;22.09;100.00;98736.31;1757103;81;21013;-70
2021/08/18 03:03:03;;;;;;;8.85;4.28;;;;;;;22.07;100.00;98736.88;1756860;81;20993;-70
2021/08/18 03:05:33;;;;;;;4.87;3.95;;;;;;;22.06;100.00;98738.70;1768654;81;20915;-70
2021/08/18 03:08:01;;;;;;;9.93;5.42;;;;;;;22.06;100.00;98736.02;1768484;81;20939;-69
2021/08/18 03:10:32;;;;;;;7.97;4.55;;;;;;;22.06;100.00;98727.95;1786193;78;21424;-62
2021/08/18 03:13:02;;;;;;;7.42;5.00;;;;;;;22.04;100.00;98728.53;1747391;81;21058;-61
2021/08/18 03:15:32;;;;;;;7.37;4.45;;;;;;;22.00;100.00;98724.26;1788803;80;21544;-61
2021/08/18 03:18:00;;;;;;;6.10;4.50;;;;;;;21.97;100.00;98734.70;1746765;81;21398;-62
2021/08/18 03:20:31;;;;;;;5.80;4.08;;;;;;;21.97;100.00;98741.90;1757176;81;21525;-61
2021/08/18 03:22:59;;;;;;;7.33;4.60;;;;;;;21.97;100.00;98732.50;1757298;81;21128;-61
2021/08/18 03:25:29;;;;;;;4.92;4.25;;;;;;;21.97;100.00;98737.39;1748764;81;20985;-61
2021/08/18 03:27:57;;;;;;;6.15;4.70;;;;;;;21.95;100.00;98731.25;1752121;81;20974;-61
2021/08/18 03:30:25;;;;;;;12.15;4.83;;;;;;;21.94;100.00;98737.58;1755671;81;20987;-63
2021/08/18 03:32:54;;;;;;;10.58;5.10;;;;;;;21.92;100.00;98747.54;1753568;81;21545;-67
2021/08/18 03:35:23;;;;;;;8.35;4.95;;;;;;;21.95;100.00;98755.41;1768295;81;21145;-67
2021/08/18 03:37:52;;;;;;;8.38;4.60;;;;;;;21.95;100.00;98755.89;1754843;81;20862;-68
2021/08/18 03:40:22;;;;;;;7.60;5.47;;;;;;;21.94;100.00;98759.05;1759945;81;21450;-67
2021/08/18 03:42:51;;;;;;;8.28;4.28;;;;;;;21.92;100.00;98754.25;1823399;78;21403;-66
2021/08/18 03:45:18;;;;;;;5.08;4.12;;;;;;;21.93;100.00;98755.12;1755518;81;20935;-68
2021/08/18 03:47:46;;;;;;;9.75;4.47;;;;;;;21.94;100.00;98748.80;1780584;80;21164;-67
2021/08/18 03:50:14;;;;;;;6.33;5.08;;;;;;;21.94;100.00;98742.94;1782838;79;20971;-67
2021/08/18 03:52:43;;;;;;;7.47;4.83;;;;;;;21.92;100.00;98752.05;1753197;81;21588;-65
2021/08/18 03:55:13;;;;;;;8.65;5.12;;;;;;;21.88;100.00;98754.05;1753547;80;21625;-67
2021/08/18 03:57:41;;;;;;;6.25;5.05;;;;;;;21.88;100.00;98748.67;1760286;81;20927;-67
2021/08/18 04:00:13;;;;;;;7.25;5.17;;;;;;;21.87;100.00;98726.80;1757319;81;21180;-64
2021/08/18 04:02:41;;;;;;;4.97;4.33;;;;;;;21.86;100.00;98719.70;1753762;81;20858;-65
2021/08/18 04:05:11;;;;;;;6.58;4.53;;;;;;;21.84;100.00;98708.19;1760149;81;20995;-66
2021/08/18 04:07:39;;;;;;;5.97;4.60;;;;;;;21.83;100.00;98709.62;1753278;81;20948;-67
2021/08/18 04:10:08;;;;;;;6.10;4.22;;;;;;;21.80;100.00;98714.70;1759982;81;20947;-66
2021/08/18 04:12:55;;;;;;;7.65;4.65;;;;;;;21.82;100.00;98711.45;1755420;81;20868;-65
2021/08/18 04:15:36;;;;;;;4.62;4.22;;;;;;;21.82;100.00;98703.86;1738834;81;21494;-65
2021/08/18 04:18:07;;;;;;;5.10;4.27;;;;;;;21.76;100.00;98706.44;1745894;82;21536;-65
2021/08/18 04:20:35;;;;;;;5.95;4.35;;;;;;;21.71;100.00;98699.09;1745605;82;21018;-66
2021/08/18 04:23:04;;;;;;;5.22;3.98;;;;;;;21.68;100.00;98681.83;1744586;81;21007;-66
2021/08/18 04:25:33;;;;;;;5.85;4.25;;;;;;;21.67;100.00;98666.20;1752436;81;21954;-66
2021/08/18 04:28:02;;;;;;;6.65;4.40;;;;;;;21.64;100.00;98679.80;1822973;78;20867;-63
2021/08/18 04:30:30;;;;;;;7.03;4.65;;;;;;;21.61;100.00;98685.83;1802741;78;20877;-61
2021/08/18 04:32:58;;;;;;;7.87;3.90;;;;;;;21.56;100.00;98687.91;1750425;82;21577;-60
2021/08/18 04:35:26;;;;;;;4.28;3.85;;;;;;;21.55;100.00;98702.28;1771008;80;20989;-62
2021/08/18 04:37:55;;;;;;;5.92;4.05;;;;;;;21.56;100.00;98704.02;1769954;79;21786;-61
2021/08/18 04:40:23;;;;;;;5.12;4.60;;;;;;;21.56;100.00;98704.87;1767088;80;21093;-60
2021/08/18 04:42:51;;;;;;;5.85;4.25;;;;;;;21.59;100.00;98713.23;1766853;81;20844;-60
2021/08/18 04:45:19;;;;;;;4.70;4.20;;;;;;;21.58;100.00;98717.73;1754507;81;20913;-61
2021/08/18 04:47:46;;;;;;;4.62;4.20;;;;;;;21.60;100.00;98718.98;1756622;81;21422;-61
2021/08/18 04:50:17;;;;;;;5.00;4.33;;;;;;;21.62;100.00;98727.81;1754794;80;20881;-60
2021/08/18 04:52:46;;;;;;;6.42;4.08;;;;;;;21.62;100.00;98730.02;1750555;80;20906;-61
2021/08/18 04:55:14;;;;;;;5.37;4.55;;;;;;;21.61;100.00;98728.30;1756862;81;21473;-60
2021/08/18 04:57:42;;;;;;;6.67;4.65;;;;;;;21.62;100.00;98718.42;1727955;81;20926;-60
2021/08/18 05:00:12;;;;;;;5.05;4.37;;;;;;;21.63;100.00;98716.99;1741394;81;20954;-60
2021/08/18 05:02:40;;;;;;;8.08;4.17;;;;;;;21.66;100.00;98710.10;1764930;80;21064;-63
2021/08/18 05:05:10;;;;;;;4.47;4.00;;;;;;;21.70;100.00;98710.78;1764736;80;21608;-60
2021/08/18 05:07:38;;;;;;;5.40;4.08;;;;;;;21.72;100.00;98700.83;1765496;80;21005;-60
2021/08/18 05:10:08;;;;;;;5.53;4.17;;;;;;;21.74;100.00;98700.26;1763915;80;21540;-61
2021/08/18 05:12:38;;;;;;;5.00;4.20;;;;;;;21.76;100.00;98699.72;1786914;80;21541;-60
2021/08/18 05:15:09;;;;;;;4.58;3.85;;;;;;;21.79;100.00;98711.63;1756129;81;20890;-60
2021/08/18 05:17:36;;;;;;;4.97;3.92;;;;;;;21.82;100.00;98716.81;1788495;79;21473;-60
2021/08/18 05:20:08;;;;;;;4.65;4.00;;;;;;;21.83;100.00;98718.55;1741194;81;21552;-61
2021/08/18 05:22:36;;;;;;;4.87;4.10;;;;;;;21.86;100.00;98725.55;1727407;83;20982;-60
2021/08/18 05:25:07;;;;;;;5.33;4.30;;;;;;;21.89;100.00;98715.97;1728607;82;21551;-60
2021/08/18 05:27:35;;;;;;;5.10;4.05;;;;;;;21.94;100.00;98714.75;1757612;81;21465;-61
2021/08/18 05:30:04;;;;;;;5.30;3.87;;;;;;;22.01;100.00;98712.56;1757908;80;21022;-60
2021/08/18 05:32:31;;;;;;;5.62;4.47;;;;;;;22.09;100.00;98717.03;1728833;82;20906;-60
2021/08/18 05:35:00;;;;;;;7.92;4.92;;;;;;;22.16;100.00;98712.15;1725470;83;21404;-60
2021/08/18 05:37:28;;;;;;;5.53;4.50;;;;;;;22.21;100.00;98718.11;1751840;81;21115;-60
2021/08/18 05:39:56;;;;;;;5.92;4.20;;;;;;;22.27;100.00;98711.05;1730416;82;21341;-61
2021/08/18 05:42:24;;;;;;;6.05;4.15;;;;;;;22.35;100.00;98715.48;1764545;81;21544;-60
2021/08/18 05:44:52;;;;;;;7.17;4.55;;;;;;;22.42;100.00;98711.95;1749711;81;20931;-63
2021/08/18 05:47:20;;;;;;;5.00;4.50;;;;;;;22.47;100.00;98712.52;1764715;81;20915;-61
2021/08/18 05:49:49;;;;;;;5.42;4.10;;;;;;;22.50;100.00;98718.58;1749620;82;20928;-61
2021/08/18 05:52:18;;;;;;;4.15;3.80;;;;;;;22.55;100.00;98722.33;1762887;81;21847;-60
2021/08/18 05:54:45;;;;;;;5.17;4.05;;;;;;;22.59;100.00;98719.83;1740218;81;20996;-61
2021/08/18 05:57:13;;;;;;;4.45;3.75;;;;;;;22.62;100.00;98729.91;1745982;82;20974;-61
2021/08/18 05:59:41;;;;;;;4.97;3.70;;;;;;;22.68;100.00;98734.05;1736419;82;21467;-61
2021/08/18 06:02:09;;;;;;;4.25;3.85;;;;;;;22.74;100.00;98736.87;1744063;81;21552;-60
2021/08/18 06:04:39;;;;;;;7.15;4.17;;;;;;;22.77;100.00;98733.50;1778251;80;22100;-61
2021/08/18 06:07:07;;;;;;;6.22;3.98;;;;;;;22.76;100.00;98727.74;1748084;81;20923;-60
2021/08/18 06:09:37;;;;;;;4.95;4.12;;;;;;;22.77;100.00;98731.30;1741659;80;20912;-64
2021/08/18 06:12:13;;;;;;;4.87;4.08;;;;;;;22.78;100.00;98733.02;1757143;80;20965;-60
2021/08/18 06:14:41;;;;;;;4.78;3.60;;;;;;;22.77;100.00;98722.75;1768744;81;21347;-60
2021/08/18 06:17:12;;;;;;;4.53;3.90;;;;;;;22.78;100.00;98711.52;1754875;81;20906;-61
2021/08/18 06:19:42;;;;;;;;;;;;;;;22.77;100.00;98716.51;1756268;80;21001;-61
2021/08/18 06:22:09;;;;;;;3.92;3.52;;;;;;;22.74;100.00;98724.28;1748134;81;20131;-61
2021/08/18 06:24:41;;;;;;;6.25;3.72;;;;;;;22.70;100.00;98720.03;1753907;81;20969;-60
2021/08/18 06:27:12;;;;;;;4.40;3.50;;;;;;;22.70;100.00;98723.20;1734896;81;20942;-60
2021/08/18 06:29:40;;;;;;;4.10;3.70;;;;;;;22.69;100.00;98722.81;1734025;81;21123;-60
2021/08/18 06:32:08;;;;;;;4.78;3.72;;;;;;;22.65;100.00;98716.77;1736364;81;20870;-60
2021/08/18 06:34:36;;;;;;;4.67;3.90;;;;;;;22.65;100.00;98716.77;1736506;81;20925;-60
2021/08/18 06:37:05;;;;;;;4.87;3.42;;;;;;;22.68;100.00;98724.64;1736348;81;20906;-60
2021/08/18 06:39:34;;;;;;;3.95;3.58;;;;;;;22.74;100.00;98730.14;1727793;81;21032;-61
2021/08/18 06:42:02;;;;;;;4.35;3.58;;;;;;;22.83;100.00;98725.56;1753379;80;21158;-60
2021/08/18 06:44:30;;;;;;;4.97;3.35;;;;;;;22.92;100.00;98728.55;1753010;80;20982;-60
2021/08/18 06:46:57;;;;;;;4.00;3.50;;;;;;;23.02;100.00;98730.17;1753560;81;20906;-61
2021/08/18 06:49:26;;;;;;;4.55;3.52;;;;;;;23.13;100.00;98730.34;1753153;80;21010;-61
2021/08/18 06:51:55;;;;;;;5.95;4.12;;;;;;;23.19;100.00;98729.98;1723566;81;20937;-60
2021/08/18 06:54:23;;;;;;;4.28;3.67;;;;;;;23.26;100.00;98733.63;1748605;81;21844;-60
2021/08/18 06:56:52;;;;;;;5.03;3.60;;;;;;;23.33;100.00;98729.58;1747978;81;20943;-60
2021/08/18 06:59:19;;;;;;;4.42;3.80;;;;;;;23.42;100.00;98727.63;1744094;81;21090;-61
2021/08/18 07:01:48;;;;;;;4.90;4.22;;;;;;;23.49;100.00;98727.61;1755694;80;22058;-60
2021/08/18 07:04:17;;;;;;;6.47;4.55;;;;;;;23.50;100.00;98726.65;1761059;81;21055;-61
2021/08/18 07:06:48;;;;;;;6.35;4.90;;;;;;;23.51;100.00;98722.99;1760840;81;21193;-61
2021/08/18 07:09:16;;;;;;;6.28;5.00;;;;;;;23.50;100.00;98718.09;1772260;78;20984;-60
2021/08/18 07:11:44;;;;;;;7.70;5.60;;;;;;;23.48;100.00;98724.06;1757630;80;20933;-61
2021/08/18 07:14:14;;;;;;;7.90;5.35;;;;;;;23.44;100.00;98720.32;1782461;79;20970;-61
2021/08/18 07:16:43;;;;;;;7.03;5.80;;;;;;;23.42;100.00;98720.91;1750171;81;21029;-61
2021/08/18 07:19:10;;;;;;;6.17;5.55;;;;;;;23.43;100.00;98714.55;1750633;82;21156;-60
2021/08/18 07:21:39;;;;;;;6.12;5.35;;;;;;;23.43;100.00;98700.61;1745324;81;21427;-61
2021/08/18 07:24:07;;;;;;;6.47;5.05;;;;;;;23.44;100.00;98709.55;1753346;81;20986;-60
2021/08/18 07:26:34;;;;;;;9.50;5.90;;;;;;;23.44;100.00;98709.55;1753192;81;20899;-61
2021/08/18 07:29:02;;;;;;;6.05;5.22;;;;;;;23.45;100.00;98704.07;1753346;81;20923;-61
2021/08/18 07:31:30;;;;;;;7.42;5.45;;;;;;;23.45;100.00;98698.69;1753285;81;21158;-61
2021/08/18 07:33:57;;;;;;;6.78;5.60;;;;;;;23.45;100.00;98699.17;1768140;80;20889;-60
2021/08/18 07:36:24;;;;;;;6.25;5.33;;;;;;;23.46;100.00;98703.11;1768410;80;21003;-60
2021/08/18 07:38:52;;;;;;;6.97;5.87;;;;;;;23.50;100.00;98710.02;1768399;80;21585;-61
2021/08/18 07:41:20;;;;;;;6.55;5.85;;;;;;;23.53;100.00;98712.98;1750311;80;21492;-60
2021/08/18 07:43:48;;;;;;;7.65;5.75;;;;;;;23.53;100.00;98712.50;1789431;80;21131;-59
2021/08/18 07:46:17;;;;;;;8.15;5.47;;;;;;;23.53;100.00;98715.67;1750889;81;21486;-59
2021/08/18 07:48:44;;;;;;;6.85;5.78;;;;;;;23.53;100.00;98709.81;1771361;80;20968;-59
2021/08/18 07:51:12;;;;;;;8.33;5.70;;;;;;;23.54;100.00;98720.09;1769327;80;21453;-59
2021/08/18 07:53:43;;;;;;;10.38;5.37;;;;;;;23.58;100.00;98727.52;1770920;81;20894;-59
2021/08/18 07:56:10;;;;;;;9.23;5.85;;;;;;;23.60;100.00;98725.59;1753463;81;21980;-60
2021/08/18 07:58:38;;;;;;;7.55;5.08;;;;;;;23.64;100.00;98725.29;1756631;81;20924;-60
2021/08/18 08:01:05;;;;;;;6.58;5.12;;;;;;;23.67;100.00;98725.60;1745599;82;20944;-60
2021/08/18 08:03:33;;;;;;;5.80;5.05;;;;;;;23.69;100.00;98728.58;1744237;82;20955;-59
2021/08/18 08:06:00;;;;;;;7.78;5.50;;;;;;;23.68;100.00;98721.46;1743228;81;20925;-59
2021/08/18 08:08:28;;;;;;;6.17;4.62;;;;;;;23.68;100.00;98721.46;1783510;80;21168;-60
2021/08/18 08:10:57;;;;;;;8.08;4.95;;;;;;;23.70;100.00;98721.36;1753909;80;21007;-59
2021/08/18 08:13:24;;;;;;;6.25;4.40;;;;;;;23.70;100.00;98722.22;1790572;79;20967;-59
2021/08/18 08:15:52;;;;;;;5.75;4.12;;;;;;;23.70;100.00;98707.89;1762957;81;21435;-59
2021/08/18 08:18:21;;;;;;;4.53;4.10;;;;;;;23.71;100.00;98710.97;1786516;80;20964;-60
2021/08/18 08:20:50;;;;;;;8.45;4.65;;;;;;;23.71;100.00;98710.48;1753330;80;21207;-59
2021/08/18 08:23:18;;;;;;;6.92;4.45;;;;;;;23.70;100.00;98700.68;1741947;81;21426;-59
2021/08/18 08:25:46;;;;;;;5.53;5.03;;;;;;;23.74;100.00;98706.72;1739160;81;21054;-59
2021/08/18 08:28:13;;;;;;;5.28;4.78;;;;;;;23.76;100.00;98698.92;1737861;82;21617;-60
2021/08/18 08:30:41;;;;;;;6.33;5.12;;;;;;;23.78;100.00;98701.52;1758351;81;20930;-62
2021/08/18 08:33:09;;;;;;;6.83;4.30;;;;;;;23.83;100.00;98704.76;1745093;81;21178;-60
2021/08/18 08:35:37;;;;;;;8.25;4.17;;;;;;;23.92;100.00;98705.48;1757259;80;20993;-61
2021/08/18 08:38:05;;;;;;;8.18;4.33;;;;;;;24.01;100.00;98712.08;1773142;80;20935;-61
2021/08/18 08:40:33;;;;;;;5.40;4.08;;;;;;;24.08;100.00;98708.00;1765576;81;20955;-62
2021/08/18 08:43:02;;;;;;;7.78;4.62;;;;;;;24.14;100.00;98708.96;1772062;81;21032;-61
2021/08/18 08:45:32;;;;;;;7.33;5.47;;;;;;;24.17;100.00;98697.97;1765306;81;21164;-64
2021/08/18 08:48:01;;;;;;;9.05;6.15;;;;;;;24.20;100.00;98692.38;1752272;81;21526;-56
2021/08/18 08:50:30;;;;;;;7.58;5.55;;;;;;;24.23;100.00;98697.55;1752050;81;21081;-62
2021/08/18 08:52:58;;;;;;;8.03;5.47;;;;;;;24.25;100.00;98702.34;1753052;81;20924;-62
2021/08/18 08:55:27;;;;;;;6.75;5.42;;;;;;;24.26;100.00;98704.56;1766971;81;20930;-63
2021/08/18 08:57:56;;;;;;;36.53;5.87;;;;;;;24.25;100.00;98702.83;1767127;81;21185;-61
2021/08/18 09:00:24;;;;;;;8.38;5.35;;;;;;;24.23;100.00;98708.81;1766820;81;20982;-63
2021/08/18 09:03:17;;;;;;;9.50;5.45;;;;;;;24.18;100.00;98711.83;1766831;81;20875;-64
2021/08/18 09:05:45;;;;;;;6.22;5.35;;;;;;;24.15;100.00;98722.33;1766995;81;20982;-63
2021/08/18 09:08:22;;;;;;;22.52;5.80;;;;;;;24.12;100.00;98717.15;1766851;81;21069;-63
2021/08/18 09:11:09;;;;;;;6.40;5.30;;;;;;;24.08;100.00;98722.34;1766932;81;21157;-64
2021/08/18 09:13:53;;;;;;;6.95;5.33;;;;;;;24.03;100.00;98713.70;1760011;81;20880;-63
2021/08/18 09:16:22;;;;;;;7.72;5.42;;;;;;;23.99;100.00;98716.70;1770746;80;20968;-61
2021/08/18 09:18:54;;;;;;;8.88;7.17;;;;;;;23.96;100.00;98720.47;1770509;80;20905;-64
2021/08/18 09:21:40;;;;;;;7.67;6.25;;;;;;;23.93;100.00;98723.38;1771187;80;20949;-63
2021/08/18 09:24:19;;;;;;;9.33;6.70;;;;;;;23.90;100.00;98720.02;1763715;80;21443;-64
2021/08/18 09:26:58;;;;;;;9.95;8.33;;;;;;;23.84;100.00;98715.43;1747010;81;21462;-63
2021/08/18 09:29:43;;;;;;;6.42;5.37;;;;;;;23.79;100.00;98712.18;1780585;80;20877;-62
2021/08/18 09:32:27;;;;;;;6.50;4.85;;;;;;;23.75;100.00;98713.36;1753819;81;21417;-65
2021/08/18 09:34:59;;;;;;;6.30;4.50;;;;;;;23.71;100.00;98713.66;1771440;80;20968;-64
2021/08/18 09:37:27;;;;;;;;;;;;;;;23.68;100.00;98717.42;1774233;80;21802;-64
2021/08/18 09:39:56;;;;;;;6.35;4.75;;;;;;;23.65;100.00;98714.94;1769470;80;20101;-64
2021/08/18 09:42:32;;;;;;;5.17;4.42;;;;;;;23.62;100.00;98713.76;1740658;80;20934;-64
2021/08/18 09:45:31;;;;;;;4.75;4.25;;;;;;;23.59;100.00;98719.34;1738005;82;21815;-63
2021/08/18 09:48:12;;;;;;;4.95;4.45;;;;;;;23.55;100.00;98719.17;1737848;82;21525;-63
2021/08/18 09:50:55;;;;;;;6.33;3.92;;;;;;;23.51;100.00;98718.95;1738125;82;21896;-63
2021/08/18 09:53:31;;;;;;;6.42;4.95;;;;;;;23.46;100.00;98707.63;1753212;80;20973;-63
2021/08/18 09:56:12;;;;;;;5.42;4.92;;;;;;;23.40;100.00;98714.27;1725101;83;21419;-64
2021/08/18 09:58:49;;;;;;;5.60;4.40;;;;;;;23.37;100.00;98706.40;1734973;82;20920;-63
2021/08/18 10:01:18;;;;;;;5.22;4.70;;;;;;;23.37;100.00;98706.40;1743549;82;21474;-64
2021/08/18 10:03:49;;;;;;;4.75;4.35;;;;;;;23.35;100.00;98716.41;1752352;81;21138;-64
2021/08/18 10:06:17;;;;;;;6.03;4.50;;;;;;;23.32;100.00;98711.22;1751907;81;21031;-64
2021/08/18 10:08:46;;;;;;;6.58;4.70;;;;;;;23.31;100.00;98710.84;1751984;81;21070;-64
2021/08/18 10:11:16;;;;;;;6.62;4.92;;;;;;;23.27;100.00;98708.45;1770495;79;20975;-64
2021/08/18 10:13:45;;;;;;;5.17;4.67;;;;;;;23.20;100.00;98711.53;1782785;80;20911;-63
2021/08/18 10:16:13;;;;;;;5.55;4.60;;;;;;;23.14;100.00;98709.20;1750170;81;21826;-64
2021/08/18 10:18:45;;;;;;;6.20;5.30;;;;;;;23.07;100.00;98710.56;1775057;80;20915;-64
2021/08/18 10:21:25;;;;;;;6.05;5.40;;;;;;;23.04;100.00;98711.23;1760523;81;20939;-64
2021/08/18 10:23:59;;;;;;;7.65;5.90;;;;;;;23.00;100.00;98709.70;1753318;81;20988;-65
2021/08/18 10:26:40;;;;;;;8.70;6.37;;;;;;;22.98;100.00;98715.19;1759791;81;21596;-64
2021/08/18 10:29:33;;;;;;;7.87;5.35;;;;;;;22.96;100.00;98705.48;1743173;81;21125;-64
2021/08/18 10:32:10;;;;;;;6.83;5.58;;;;;;;22.90;100.00;98701.36;1761374;81;21513;-63
2021/08/18 10:34:45;;;;;;;10.63;6.05;;;;;;;22.88;100.00;98700.11;1761131;80;20995;-63
2021/08/18 10:37:23;;;;;;;7.70;5.70;;;;;;;22.83;100.00;98700.89;1765130;80;20883;-64
2021/08/18 10:39:52;;;;;;;6.50;5.75;;;;;;;22.78;100.00;98696.72;1732172;81;20907;-64
2021/08/18 10:42:34;;;;;;;6.92;5.12;;;;;;;22.71;100.00;98697.59;1745054;82;20908;-63
2021/08/18 10:45:02;;;;;;;6.85;5.03;;;;;;;22.66;100.00;98698.80;1759862;81;20946;-64
2021/08/18 10:47:38;;;;;;;6.15;4.95;;;;;;;22.63;100.00;98706.10;1762143;80;21009;-63
2021/08/18 10:50:26;;;;;;;7.25;5.58;;;;;;;22.60;100.00;98710.33;1758437;80;21047;-64
2021/08/18 10:52:55;;;;;;;7.47;5.70;;;;;;;22.58;100.00;98714.06;1760641;80;21012;-63
2021/08/18 10:55:30;;;;;;;6.87;5.45;;;;;;;22.53;100.00;98719.73;1745587;82;21127;-64
2021/08/18 10:58:02;;;;;;;7.30;5.47;;;;;;;22.51;100.00;98732.88;1761213;80;21557;-64
2021/08/18 11:00:40;;;;;;;6.72;5.67;;;;;;;22.47;100.00;98722.80;1758393;80;21510;-64
2021/08/18 11:03:17;;;;;;;7.72;6.00;;;;;;;22.46;100.00;98725.09;1754944;80;21146;-63
2021/08/18 11:05:52;;;;;;;8.43;6.53;;;;;;;22.44;100.00;98727.02;1761347;81;21030;-64
2021/08/18 11:08:38;;;;;;;6.70;5.60;;;;;;;22.42;100.00;98732.09;1748307;80;21138;-64
2021/08/18 11:11:10;;;;;;;9.08;6.12;;;;;;;22.39;100.00;98735.84;1748495;81;20987;-64
2021/08/18 11:14:08;;;;;;;7.15;5.83;;;;;;;22.38;100.00;98745.34;1768517;80;20987;-63
2021/08/18 11:16:36;;;;;;;7.80;5.90;;;;;;;22.36;100.00;98745.43;1771361;81;21574;-63
2021/08/18 11:19:11;;;;;;;7.87;5.83;;;;;;;22.39;100.00;98742.55;1765850;81;21093;-66
2021/08/18 11:21:42;;;;;;;6.83;6.10;;;;;;;22.39;100.00;98736.31;1764255;80;21073;-64
2021/08/18 11:24:16;;;;;;;6.30;5.72;;;;;;;22.38;100.00;98742.65;1765983;80;20960;-63
2021/08/18 11:26:46;;;;;;;8.15;5.87;;;;;;;;;;1754494;80;20946;-63
2021/08/18 11:29:20;;;;;;;8.40;5.20;;;;;;;22.37;100.00;98741.78;1737970;82;20950;-63
2021/08/18 11:31:53;;;;;;;6.25;5.08;;;;;;;22.38;100.00;98733.24;1737966;82;20898;-63
2021/08/18 11:34:34;;;;;;;6.58;5.22;;;;;;;22.43;100.00;98729.80;1750035;81;21131;-64
2021/08/18 11:37:07;;;;;;;6.50;5.65;;;;;;;22.46;100.00;98727.78;1766896;81;21522;-64
2021/08/18 11:39:44;;;;;;;6.03;5.42;;;;;;;22.48;100.00;98726.34;1768660;81;20871;-64
2021/08/18 11:42:17;;;;;;;6.15;5.47;;;;;;;22.50;100.00;98728.46;1767873;81;20982;-63